地図

経路データ

SID SEASON NUMBER BASIN SUBBASIN NAME ISO_TIME NATURE LAT LON WMO_WIND WMO_PRES WMO_AGENCY TRACK_TYPE DIST2LAND LANDFALL IFLAG USA_AGENCY USA_ATCF_ID USA_LAT USA_LON USA_RECORD USA_STATUS USA_WIND USA_PRES USA_SSHS USA_R34_NE USA_R34_SE USA_R34_SW USA_R34_NW USA_R50_NE USA_R50_SE USA_R50_SW USA_R50_NW USA_R64_NE USA_R64_SE USA_R64_SW USA_R64_NW USA_POCI USA_ROCI USA_RMW USA_EYE TOKYO_LAT TOKYO_LON TOKYO_GRADE TOKYO_WIND TOKYO_PRES TOKYO_R50_DIR TOKYO_R50_LONG TOKYO_R50_SHORT TOKYO_R30_DIR TOKYO_R30_LONG TOKYO_R30_SHORT TOKYO_LAND CMA_LAT CMA_LON CMA_CAT CMA_WIND CMA_PRES HKO_LAT HKO_LON HKO_CAT HKO_WIND HKO_PRES NEWDELHI_LAT NEWDELHI_LON NEWDELHI_GRADE NEWDELHI_WIND NEWDELHI_PRES NEWDELHI_CI NEWDELHI_DP NEWDELHI_POCI REUNION_LAT REUNION_LON REUNION_TYPE REUNION_WIND REUNION_PRES REUNION_TNUM REUNION_CI REUNION_RMW REUNION_R34_NE REUNION_R34_SE REUNION_R34_SW REUNION_R34_NW REUNION_R50_NE REUNION_R50_SE REUNION_R50_SW REUNION_R50_NW REUNION_R64_NE REUNION_R64_SE REUNION_R64_SW REUNION_R64_NW BOM_LAT BOM_LON BOM_TYPE BOM_WIND BOM_PRES BOM_TNUM BOM_CI BOM_RMW BOM_R34_NE BOM_R34_SE BOM_R34_SW BOM_R34_NW BOM_R50_NE BOM_R50_SE BOM_R50_SW BOM_R50_NW BOM_R64_NE BOM_R64_SE BOM_R64_SW BOM_R64_NW BOM_ROCI BOM_POCI BOM_EYE BOM_POS_METHOD BOM_PRES_METHOD NADI_LAT NADI_LON NADI_CAT NADI_WIND NADI_PRES WELLINGTON_LAT WELLINGTON_LON WELLINGTON_WIND WELLINGTON_PRES DS824_LAT DS824_LON DS824_STAGE DS824_WIND DS824_PRES TD9636_LAT TD9636_LON TD9636_STAGE TD9636_WIND TD9636_PRES TD9635_LAT TD9635_LON TD9635_WIND TD9635_PRES TD9635_ROCI NEUMANN_LAT NEUMANN_LON NEUMANN_CLASS NEUMANN_WIND NEUMANN_PRES MLC_LAT MLC_LON MLC_CLASS MLC_WIND MLC_PRES USA_GUST BOM_GUST BOM_GUST_PER REUNION_GUST REUNION_GUST_PER USA_SEAHGT USA_SEARAD_NE USA_SEARAD_SE USA_SEARAD_SW USA_SEARAD_NW STORM_SPEED STORM_DIR
1946335S06071 1947 71 SI MM NOT_NAMED 1946-12-01 06:00:00 NR -6.30000 71.4000 reunion main 1696 1696 _____O________ -1 -6.30000 71.4000 99 9.90000 4 264
1946335S06071 1947 71 SI MM NOT_NAMED 1946-12-01 09:00:00 NR -6.32194 71.2008 main 1709 1709 _____P________ -1 -6.32194 71.2008 99 4 264
1946335S06071 1947 71 SI MM NOT_NAMED 1946-12-01 12:00:00 NR -6.34412 71.0003 main 1722 1722 _____P________ -1 -6.34412 71.0003 99 4 264
1946335S06071 1947 71 SI MM NOT_NAMED 1946-12-01 15:00:00 NR -6.36687 70.7973 main 1744 1744 _____P________ -1 -6.36687 70.7973 99 4 263
1946335S06071 1947 71 SI MM NOT_NAMED 1946-12-01 18:00:00 NR -6.39049 70.5904 main 1758 1758 _____P________ -1 -6.39049 70.5904 99 4 263
1946335S06071 1947 71 SI MM NOT_NAMED 1946-12-01 21:00:00 NR -6.41531 70.3786 main 1772 1772 _____P________ -1 -6.41531 70.3786 99 4 263
1946335S06071 1947 71 SI MM NOT_NAMED 1946-12-02 00:00:00 NR -6.44163 70.1604 main 1786 1786 _____P________ -1 -6.44163 70.1604 99 4 263
1946335S06071 1947 71 SI MM NOT_NAMED 1946-12-02 03:00:00 NR -6.46975 69.9346 main 1815 1815 _____P________ -1 -6.46975 69.9346 99 5 263
1946335S06071 1947 71 SI MM NOT_NAMED 1946-12-02 06:00:00 NR -6.50000 69.7000 reunion main 1829 1829 _____O________ -1 -6.50000 69.7000 99 9.90000 5 262
1946335S06071 1947 71 SI MM NOT_NAMED 1946-12-02 09:00:00 NR -6.53276 69.4550 main 1844 1844 _____P________ -1 -6.53276 69.4550 99 5 262
1946335S06071 1947 71 SI MM NOT_NAMED 1946-12-02 12:00:00 NR -6.56878 69.1969 main 1874 1874 _____P________ -1 -6.56878 69.1969 99 5 262
1946335S06071 1947 71 SI MM NOT_NAMED 1946-12-02 15:00:00 NR -6.60890 68.9226 main 1892 1892 _____P________ -1 -6.60890 68.9226 99 6 261
1946335S06071 1947 71 SI MM NOT_NAMED 1946-12-02 18:00:00 NR -6.65397 68.6290 main 1906 1886 _____P________ -1 -6.65397 68.6290 99 6 261
1946335S06071 1947 71 SI MM NOT_NAMED 1946-12-02 21:00:00 NR -6.70480 68.3131 main 1886 1858 _____P________ -1 -6.70480 68.3131 99 7 261
1946335S06071 1947 71 SI MM NOT_NAMED 1946-12-03 00:00:00 NR -6.76221 67.9717 main 1858 1832 _____P________ -1 -6.76221 67.9717 99 7 260
1946335S06071 1947 71 SI MM NOT_NAMED 1946-12-03 03:00:00 NR -6.82701 67.6017 main 1832 1798 _____P________ -1 -6.82701 67.6017 99 8 260
1946335S06071 1947 71 SI MM NOT_NAMED 1946-12-03 06:00:00 NR -6.90000 67.2000 reunion main 1798 1764 _____O________ -1 -6.90000 67.2000 99 9.90000 8 260
1946335S06071 1947 71 SI MM NOT_NAMED 1946-12-03 09:00:00 NR -6.97330 66.7975 main 1764 1741 _____P________ -1 -6.97330 66.7975 99 8 259
1946335S06071 1947 71 SI MM NOT_NAMED 1946-12-03 12:00:00 NR -7.05404 66.3656 main 1731 1703 _____P________ -1 -7.05404 66.3656 99 9 259
1946335S06071 1947 71 SI MM NOT_NAMED 1946-12-03 15:00:00 NR -7.14232 65.9035 main 1703 1665 _____P________ -1 -7.14232 65.9035 99 10 259
1946335S06071 1947 71 SI MM NOT_NAMED 1946-12-03 18:00:00 NR -7.23824 65.4099 main 1665 1629 _____P________ -1 -7.23824 65.4099 99 10 259
1946335S06071 1947 71 SI MM NOT_NAMED 1946-12-03 21:00:00 NR -7.34189 64.8840 main 1629 1594 _____P________ -1 -7.34189 64.8840 99 11 259
1946335S06071 1947 71 SI MM NOT_NAMED 1946-12-04 00:00:00 NR -7.45334 64.3245 main 1579 1546 _____P________ -1 -7.45334 64.3245 99 12 259
1946335S06071 1947 71 SI MM NOT_NAMED 1946-12-04 03:00:00 NR -7.57269 63.7302 main 1541 1505 _____P________ -1 -7.57269 63.7302 99 12 259
1946335S06071 1947 71 SI MM NOT_NAMED 1946-12-04 06:00:00 NR -7.70000 63.1000 reunion main 1505 1470 _____O________ -1 -7.70000 63.1000 99 9.90000 13 259
1946335S06071 1947 71 SI MM NOT_NAMED 1946-12-04 09:00:00 NR -7.83164 62.4400 main 1467 1416 _____P________ -1 -7.83164 62.4400 99 14 259
1946335S06071 1947 71 SI MM NOT_NAMED 1946-12-04 12:00:00 NR -7.97168 61.7400 main 1406 1332 _____P________ -1 -7.97168 61.7400 99 15 259
1946335S06071 1947 71 SI MM NOT_NAMED 1946-12-04 15:00:00 NR -8.11849 61.0071 main 1332 1252 _____P________ -1 -8.11849 61.0071 99 15 259
1946335S06071 1947 71 SI MM NOT_NAMED 1946-12-04 18:00:00 NR -8.27047 60.2486 main 1243 1169 _____P________ -1 -8.27047 60.2486 99 16 259
1946335S06071 1947 71 SI MM NOT_NAMED 1946-12-04 21:00:00 NR -8.42607 59.4715 main 1169 1080 _____P________ -1 -8.42607 59.4715 99 16 259
1946335S06071 1947 71 SI MM NOT_NAMED 1946-12-05 00:00:00 NR -8.58380 58.6829 main 1080 997 _____P________ -1 -8.58380 58.6829 99 16 259
1946335S06071 1947 71 SI MM NOT_NAMED 1946-12-05 03:00:00 NR -8.74223 57.8901 main 997 910 _____P________ -1 -8.74223 57.8901 99 16 259
1946335S06071 1947 71 SI MM NOT_NAMED 1946-12-05 06:00:00 NR -8.90000 57.1000 reunion main 910 824 _____O________ -1 -8.90000 57.1000 99 9.90000 16 259
1946335S06071 1947 71 SI MM NOT_NAMED 1946-12-05 09:00:00 NR -9.05990 56.2935 main 824 744 _____P________ -1 -9.05990 56.2935 99 16 259
1946335S06071 1947 71 SI MM NOT_NAMED 1946-12-05 12:00:00 NR -9.22123 55.4787 main 744 658 _____P________ -1 -9.22123 55.4787 99 16 259
1946335S06071 1947 71 SI MM NOT_NAMED 1946-12-05 15:00:00 NR -9.38177 54.6657 main 658 577 _____P________ -1 -9.38177 54.6657 99 16 259
1946335S06071 1947 71 SI MM NOT_NAMED 1946-12-05 18:00:00 NR -9.53934 53.8651 main 577 491 _____P________ -1 -9.53934 53.8651 99 16 259
1946335S06071 1947 71 SI MM NOT_NAMED 1946-12-05 21:00:00 NR -9.69189 53.0876 main 491 423 _____P________ -1 -9.69189 53.0876 99 15 259
1946335S06071 1947 71 SI MM NOT_NAMED 1946-12-06 00:00:00 NR -9.83744 52.3437 main 415 351 _____P________ -1 -9.83744 52.3437 99 15 259
1946335S06071 1947 71 SI MM NOT_NAMED 1946-12-06 03:00:00 NR -9.97408 51.6443 main 344 290 _____P________ -1 -9.97408 51.6443 99 14 259
1946335S06071 1947 71 SI MM NOT_NAMED 1946-12-06 06:00:00 NR -10.1000 51.0000 reunion main 290 249 _____O________ -1 -10.1000 51.0000 99 9.90000 12 259
1946335S06071 1947 71 SI MM NOT_NAMED 1946-12-06 09:00:00 NR -10.2081 50.4565 main 249 215 _____P________ -1 -10.2081 50.4565 99 10 259
1946335S06071 1947 71 SI MM NOT_NAMED 1946-12-06 12:00:00 NR -10.3063 49.9698 main 215 193 _____P________ -1 -10.3063 49.9698 99 9 258
1946335S06071 1947 71 SI MM NOT_NAMED 1946-12-06 15:00:00 NR -10.3967 49.5268 main 191 179 _____P________ -1 -10.3967 49.5268 99 9 258
1946335S06071 1947 71 SI MM NOT_NAMED 1946-12-06 18:00:00 NR -10.4815 49.1140 main 179 173 _____P________ -1 -10.4815 49.1140 99 8 258
1946335S06071 1947 71 SI MM NOT_NAMED 1946-12-06 21:00:00 NR -10.5623 48.7183 main 176 176 _____P________ -1 -10.5623 48.7183 99 8 258
1946335S06071 1947 71 SI MM NOT_NAMED 1946-12-07 00:00:00 NR -10.6412 48.3262 main 194 184 _____P________ -1 -10.6412 48.3262 99 8 259
1946335S06071 1947 71 SI MM NOT_NAMED 1946-12-07 03:00:00 NR -10.7199 47.9245 main 211 210 _____P________ -1 -10.7199 47.9245 99 8 259
1946335S06071 1947 71 SI MM NOT_NAMED 1946-12-07 06:00:00 NR -10.8000 47.5000 reunion main 234 234 _____O________ -1 -10.8000 47.5000 99 9.90000 10 259
1946335S06071 1947 71 SI MM NOT_NAMED 1946-12-07 09:00:00 NR -10.8938 46.9694 main 265 265 _____P________ -1 -10.8938 46.9694 99 11 260
1946335S06071 1947 71 SI MM NOT_NAMED 1946-12-07 12:00:00 NR -10.9884 46.4181 main 310 310 _____P________ -1 -10.9884 46.4181 99 11 260
1946335S06071 1947 71 SI MM NOT_NAMED 1946-12-07 15:00:00 NR -11.0824 45.8555 main 352 352 _____P________ -1 -11.0824 45.8555 99 11 260
1946335S06071 1947 71 SI MM NOT_NAMED 1946-12-07 18:00:00 NR -11.1744 45.2908 main 397 397 _____P________ -1 -11.1744 45.2908 99 11 261
1946335S06071 1947 71 SI MM NOT_NAMED 1946-12-07 21:00:00 NR -11.2633 44.7335 main 439 394 _____P________ -1 -11.2633 44.7335 99 11 261
1946335S06071 1947 71 SI MM NOT_NAMED 1946-12-08 00:00:00 NR -11.3479 44.1929 main 394 341 _____P________ -1 -11.3479 44.1929 99 10 261
1946335S06071 1947 71 SI MM NOT_NAMED 1946-12-08 03:00:00 NR -11.4272 43.6786 main 341 288 _____P________ -1 -11.4272 43.6786 99 10 261
1946335S06071 1947 71 SI MM NOT_NAMED 1946-12-08 06:00:00 NR -11.5000 43.2000 reunion main 288 243 _____O________ -1 -11.5000 43.2000 99 9.90000 9 261
1946335S06071 1947 71 SI MM NOT_NAMED 1946-12-08 09:00:00 NR -11.5658 42.7640 main 243 201 _____P________ -1 -11.5658 42.7640 99 8 261
1946335S06071 1947 71 SI MM NOT_NAMED 1946-12-08 12:00:00 NR -11.6252 42.3674 main 201 156 _____P________ -1 -11.6252 42.3674 99 8 261
1946335S06071 1947 71 SI MM NOT_NAMED 1946-12-08 15:00:00 NR -11.6792 42.0047 main 156 124 _____P________ -1 -11.6792 42.0047 99 7 261
1946335S06071 1947 71 SI MM NOT_NAMED 1946-12-08 18:00:00 NR -11.7288 41.6700 main 124 89 _____P________ -1 -11.7288 41.6700 99 6 261
1946335S06071 1947 71 SI MM NOT_NAMED 1946-12-08 21:00:00 NR -11.7748 41.3579 main 89 58 _____P________ -1 -11.7748 41.3579 99 6 261
1946335S06071 1947 71 SI MM NOT_NAMED 1946-12-09 00:00:00 NR -11.8181 41.0626 main 58 24 _____P________ -1 -11.8181 41.0626 99 6 261
1946335S06071 1947 71 SI MM NOT_NAMED 1946-12-09 03:00:00 NR -11.8596 40.7785 main 24 0 _____P________ -1 -11.8596 40.7785 99 6 262
1946335S06071 1947 71 SI MM NOT_NAMED 1946-12-09 06:00:00 NR -11.9000 40.5000 reunion main 0 _____O________ -1 -11.9000 40.5000 99 9.90000 6 262

IBTrACS Databaseについて

本データベースは、米国NOAAが公開する1842年以降の世界の熱帯低気圧のベストトラックデータアーカイブInternational Best Track Archive for Climate Stewardship (IBTrACS)を、ウェブで閲覧しやすい形式に変換したものです。

最終更新日:2021-12-03